createdAt,value
2016-10-10T00:00:54.520Z,0
2016-10-10T00:01:54.522Z,0
2016-10-10T00:02:54.492Z,0
2016-10-10T00:03:54.485Z,0
2016-10-10T00:04:54.462Z,0
2016-10-10T00:05:54.441Z,0
2016-10-10T00:06:54.425Z,0
2016-10-10T00:07:54.415Z,0
2016-10-10T00:08:54.409Z,0
2016-10-10T00:09:54.380Z,0
2016-10-10T00:10:54.365Z,0
2016-10-10T00:11:54.344Z,0
2016-10-10T00:12:54.337Z,0
2016-10-10T00:13:54.318Z,0
2016-10-10T00:14:53.976Z,0
2016-10-10T00:15:54.281Z,0
2016-10-10T00:16:53.942Z,0
2016-10-10T00:17:54.251Z,0
2016-10-10T00:18:54.227Z,0
2016-10-10T00:19:53.906Z,0
2016-10-10T00:20:54.197Z,0
2016-10-10T00:21:53.926Z,0
2016-10-10T00:22:54.161Z,0
2016-10-10T00:23:54.152Z,0
2016-10-10T00:24:54.136Z,0
2016-10-10T00:25:54.137Z,0
2016-10-10T00:26:54.090Z,0
2016-10-10T00:27:54.079Z,0
2016-10-10T00:28:54.072Z,0
2016-10-10T00:29:54.048Z,0
2016-10-10T00:30:54.023Z,0
2016-10-10T00:31:53.712Z,0
2016-10-10T00:32:53.999Z,0
2016-10-10T00:33:53.978Z,0
2016-10-10T00:34:53.968Z,0
2016-10-10T00:35:53.635Z,0
2016-10-10T00:36:53.932Z,0
2016-10-10T00:37:53.918Z,0
2016-10-10T00:38:53.898Z,0
2016-10-10T00:39:53.892Z,0
2016-10-10T00:40:53.233Z,0
2016-10-10T00:41:53.852Z,0
2016-10-10T00:42:53.835Z,0
2016-10-10T00:43:53.826Z,0
2016-10-10T00:44:53.796Z,0
2016-10-10T00:45:53.783Z,0
2016-10-10T00:46:53.762Z,0
2016-10-10T00:47:53.437Z,0
2016-10-10T00:48:53.742Z,0
2016-10-10T00:49:53.717Z,0
2016-10-10T00:50:53.705Z,0
2016-10-10T00:51:53.683Z,0
2016-10-10T00:52:53.671Z,0
2016-10-10T00:53:53.656Z,0
2016-10-10T00:54:53.633Z,0
2016-10-10T00:55:53.627Z,0
2016-10-10T00:56:53.603Z,0
2016-10-10T00:57:53.590Z,0
2016-10-10T00:58:53.256Z,0
2016-10-10T00:59:53.545Z,0
2016-10-10T01:00:53.535Z,0
2016-10-10T01:01:53.530Z,0
2016-10-10T01:02:53.507Z,0
2016-10-10T01:03:53.174Z,0
2016-10-10T01:04:53.481Z,0
2016-10-10T01:05:53.454Z,0
2016-10-10T01:06:53.441Z,0
2016-10-10T01:07:53.412Z,0
2016-10-10T01:08:53.085Z,0
2016-10-10T01:09:53.395Z,0
2016-10-10T01:10:53.052Z,0
2016-10-10T01:11:53.359Z,0
2016-10-10T01:12:53.332Z,0
2016-10-10T01:13:53.327Z,0
2016-10-10T01:14:53.299Z,0
2016-10-10T01:15:53.290Z,0
2016-10-10T01:16:53.273Z,0
2016-10-10T01:17:53.262Z,0
2016-10-10T01:18:53.245Z,0
2016-10-10T01:19:53.239Z,0
2016-10-10T01:20:52.896Z,0
2016-10-10T01:21:53.197Z,0
2016-10-10T01:22:53.173Z,0
2016-10-10T01:23:53.159Z,0
2016-10-10T01:24:53.149Z,0
2016-10-10T01:25:53.128Z,0
2016-10-10T01:26:53.099Z,0
2016-10-10T01:27:53.092Z,0
2016-10-10T01:28:53.070Z,0
2016-10-10T01:29:53.065Z,0
2016-10-10T01:30:53.046Z,0
2016-10-10T01:31:53.027Z,0
2016-10-10T01:32:53.007Z,0
2016-10-10T01:33:52.988Z,0
2016-10-10T01:34:52.980Z,0
2016-10-10T01:35:52.954Z,0
2016-10-10T01:36:52.941Z,0
2016-10-10T01:37:52.929Z,0
2016-10-10T01:38:52.902Z,0
2016-10-10T01:39:52.901Z,0
2016-10-10T01:40:52.874Z,0
2016-10-10T01:41:52.867Z,0
2016-10-10T01:42:52.847Z,0
2016-10-10T01:43:52.824Z,0
2016-10-10T01:44:52.809Z,0
2016-10-10T01:45:52.788Z,0
2016-10-10T01:46:52.783Z,0
2016-10-10T01:47:52.751Z,0
2016-10-10T01:48:52.752Z,0
2016-10-10T01:49:52.728Z,0
2016-10-10T01:50:52.704Z,0
2016-10-10T01:51:52.685Z,0
2016-10-10T01:52:52.671Z,0
2016-10-10T01:53:52.660Z,0
2016-10-10T01:54:52.641Z,0
2016-10-10T01:55:52.312Z,0
2016-10-10T01:56:52.808Z,0
2016-10-10T01:57:52.607Z,0
2016-10-10T01:58:52.570Z,0
2016-10-10T01:59:52.574Z,0
2016-10-10T02:00:52.548Z,0
2016-10-10T02:01:52.527Z,0
2016-10-10T02:02:52.521Z,0
2016-10-10T02:03:52.489Z,0
2016-10-10T02:04:52.485Z,0
2016-10-10T02:05:52.456Z,0
2016-10-10T02:06:52.451Z,0
2016-10-10T02:07:52.110Z,0
2016-10-10T02:08:52.416Z,0
2016-10-10T02:09:52.399Z,0
2016-10-10T02:10:52.378Z,0
2016-10-10T02:11:52.371Z,0
2016-10-10T02:12:52.354Z,0
2016-10-10T02:13:52.326Z,0
2016-10-10T02:14:52.311Z,0
2016-10-10T02:15:52.306Z,0
2016-10-10T02:16:52.280Z,0
2016-10-10T02:17:52.253Z,0
2016-10-10T02:18:52.246Z,0
2016-10-10T02:19:52.225Z,0
2016-10-10T02:20:52.214Z,0
2016-10-10T02:21:52.192Z,0
2016-10-10T02:22:52.166Z,0
2016-10-10T02:23:52.162Z,0
2016-10-10T02:24:52.145Z,0
2016-10-10T02:25:52.126Z,0
2016-10-10T02:26:51.801Z,0
2016-10-10T02:27:51.775Z,0
2016-10-10T02:28:52.072Z,0
2016-10-10T02:29:52.066Z,0
2016-10-10T02:30:52.044Z,0
2016-10-10T02:31:52.026Z,0
2016-10-10T02:32:52.042Z,0
2016-10-10T02:33:51.990Z,0
2016-10-10T02:34:51.663Z,0
2016-10-10T02:35:51.641Z,0
2016-10-10T02:36:51.952Z,0
2016-10-10T02:37:51.929Z,0
2016-10-10T02:38:51.920Z,0
2016-10-10T02:39:51.891Z,0
2016-10-10T02:40:51.882Z,0
2016-10-10T02:41:51.556Z,0
2016-10-10T02:42:51.843Z,0
2016-10-10T02:43:51.832Z,0
2016-10-10T02:44:51.810Z,0
2016-10-10T02:45:51.485Z,0
2016-10-10T02:46:51.776Z,0
2016-10-10T02:47:51.760Z,0
2016-10-10T02:48:51.746Z,0
2016-10-10T02:49:51.728Z,0
2016-10-10T02:50:51.719Z,0
2016-10-10T02:51:51.692Z,0
2016-10-10T02:52:51.681Z,0
2016-10-10T02:53:51.661Z,0
2016-10-10T02:54:51.653Z,0
2016-10-10T02:55:51.625Z,0
2016-10-10T02:56:51.300Z,0
2016-10-10T02:57:51.287Z,0
2016-10-10T02:58:51.579Z,0
2016-10-10T02:59:51.565Z,0
2016-10-10T03:00:51.539Z,0
2016-10-10T03:01:51.528Z,0
2016-10-10T03:02:51.513Z,0
2016-10-10T03:03:51.501Z,0
2016-10-10T03:04:51.478Z,0
2016-10-10T03:05:51.461Z,0
2016-10-10T03:06:51.124Z,0
2016-10-10T03:07:51.422Z,0
2016-10-10T03:08:51.413Z,0
2016-10-10T03:09:51.076Z,0
2016-10-10T03:10:51.389Z,0
2016-10-10T03:11:51.358Z,0
2016-10-10T03:12:51.340Z,0
2016-10-10T03:13:51.325Z,0
2016-10-10T03:14:51.324Z,0
2016-10-10T03:15:51.294Z,0
2016-10-10T03:16:51.280Z,0
2016-10-10T03:17:51.263Z,0
2016-10-10T03:18:51.251Z,0
2016-10-10T03:19:51.234Z,0
2016-10-10T03:20:51.207Z,0
2016-10-10T03:21:51.192Z,0
2016-10-10T03:22:51.177Z,0
2016-10-10T03:23:51.285Z,0
2016-10-10T03:24:51.144Z,0
2016-10-10T03:25:51.125Z,0
2016-10-10T03:26:50.795Z,0
2016-10-10T03:27:51.096Z,0
2016-10-10T03:28:51.089Z,0
2016-10-10T03:29:51.066Z,0
2016-10-10T03:30:51.069Z,0
2016-10-10T03:31:51.030Z,0
2016-10-10T03:32:51.021Z,0
2016-10-10T03:33:51.011Z,0
2016-10-10T03:34:50.976Z,0
2016-10-10T03:35:50.955Z,0
2016-10-10T03:36:50.946Z,0
2016-10-10T03:37:50.930Z,0
2016-10-10T03:38:50.911Z,0
2016-10-10T03:39:50.898Z,0
2016-10-10T03:40:50.888Z,0
2016-10-10T03:41:50.873Z,0
2016-10-10T03:42:50.846Z,0
2016-10-10T03:43:50.828Z,0
2016-10-10T03:44:50.814Z,0
2016-10-10T03:45:50.785Z,0
2016-10-10T03:46:50.781Z,0
2016-10-10T03:47:50.756Z,0
2016-10-10T03:48:50.739Z,0
2016-10-10T03:49:50.730Z,0
2016-10-10T03:50:50.716Z,0
2016-10-10T03:51:50.705Z,0
2016-10-10T03:52:50.691Z,0
2016-10-10T03:53:50.659Z,0
2016-10-10T03:54:50.639Z,0
2016-10-10T03:55:50.631Z,0
2016-10-10T03:56:50.297Z,0
2016-10-10T03:57:50.600Z,0
2016-10-10T03:58:50.577Z,0
2016-10-10T03:59:50.568Z,0
2016-10-10T04:00:50.222Z,0
2016-10-10T04:01:50.535Z,0
2016-10-10T04:02:50.198Z,0
2016-10-10T04:03:50.497Z,0
2016-10-10T04:04:50.474Z,0
2016-10-10T04:05:50.456Z,0
2016-10-10T04:06:50.449Z,0
2016-10-10T04:07:49.800Z,0
2016-10-10T04:08:50.408Z,0
2016-10-10T04:09:50.393Z,0
2016-10-10T04:10:50.062Z,0
2016-10-10T04:11:50.373Z,0
2016-10-10T04:12:50.336Z,0
2016-10-10T04:13:50.011Z,0
2016-10-10T04:14:49.689Z,0
2016-10-10T04:15:50.307Z,0
2016-10-10T04:16:49.651Z,0
2016-10-10T04:17:50.278Z,0
2016-10-10T04:18:50.236Z,0
2016-10-10T04:19:50.246Z,0
2016-10-10T04:20:49.904Z,0
2016-10-10T04:21:50.197Z,0
2016-10-10T04:22:50.170Z,0
2016-10-10T04:23:50.161Z,0
2016-10-10T04:24:50.147Z,0
2016-10-10T04:25:50.128Z,0
2016-10-10T04:26:49.797Z,0
2016-10-10T04:27:50.094Z,0
2016-10-10T04:28:50.078Z,0
2016-10-10T04:29:49.747Z,0
2016-10-10T04:30:50.038Z,0
2016-10-10T04:31:50.039Z,0
2016-10-10T04:32:50.008Z,0
2016-10-10T04:33:50.007Z,0
2016-10-10T04:34:49.975Z,0
2016-10-10T04:35:49.650Z,0
2016-10-10T04:36:49.629Z,0
2016-10-10T04:37:49.930Z,0
2016-10-10T04:38:49.913Z,0
2016-10-10T04:39:49.581Z,0
2016-10-10T04:40:49.888Z,0
2016-10-10T04:41:49.236Z,0
2016-10-10T04:42:49.853Z,0
2016-10-10T04:43:49.832Z,0
2016-10-10T04:44:49.809Z,0
2016-10-10T04:45:49.790Z,0
2016-10-10T04:46:49.768Z,0
2016-10-10T04:47:49.455Z,0
2016-10-10T04:48:49.434Z,0
2016-10-10T04:49:49.731Z,0
2016-10-10T04:50:49.399Z,0
2016-10-10T04:51:49.692Z,0
2016-10-10T04:52:49.677Z,0
2016-10-10T04:53:49.678Z,0
2016-10-10T04:54:49.651Z,0
2016-10-10T04:55:49.637Z,0
2016-10-10T04:56:49.616Z,0
2016-10-10T04:57:49.605Z,0
2016-10-10T04:58:49.584Z,0
2016-10-10T04:59:49.555Z,0
2016-10-10T05:00:49.542Z,0
2016-10-10T05:01:49.214Z,0
2016-10-10T05:02:49.515Z,0
2016-10-10T05:03:49.500Z,0
2016-10-10T05:04:49.488Z,0
2016-10-10T05:05:49.463Z,0
2016-10-10T05:06:49.442Z,0
2016-10-10T05:07:49.429Z,0
2016-10-10T05:08:49.101Z,0
2016-10-10T05:09:49.415Z,0
2016-10-10T05:10:49.381Z,0
2016-10-10T05:11:49.362Z,0
2016-10-10T05:12:49.337Z,0
2016-10-10T05:13:49.340Z,0
2016-10-10T05:14:49.320Z,0
2016-10-10T05:15:49.299Z,0
2016-10-10T05:16:49.284Z,0
2016-10-10T05:17:48.943Z,0
2016-10-10T05:18:49.256Z,0
2016-10-10T05:19:49.236Z,0
2016-10-10T05:20:48.899Z,0
2016-10-10T05:21:49.220Z,0
2016-10-10T05:22:48.871Z,0
2016-10-10T05:23:49.169Z,0
2016-10-10T05:24:49.148Z,0
2016-10-10T05:25:48.827Z,0
2016-10-10T05:26:48.798Z,0
2016-10-10T05:27:49.100Z,0
2016-10-10T05:28:49.085Z,0
2016-10-10T05:29:48.746Z,0
2016-10-10T05:30:48.424Z,0
2016-10-10T05:31:48.712Z,0
2016-10-10T05:32:49.021Z,0
2016-10-10T05:33:49.003Z,0
2016-10-10T05:34:48.672Z,0
2016-10-10T05:35:48.676Z,0
2016-10-10T05:36:48.633Z,0
2016-10-10T05:37:48.930Z,0
2016-10-10T05:38:48.907Z,0
2016-10-10T05:39:48.584Z,0
2016-10-10T05:40:48.575Z,0
2016-10-10T05:41:48.867Z,0
2016-10-10T05:42:48.850Z,0
2016-10-10T05:43:48.521Z,0
2016-10-10T05:44:48.820Z,0
2016-10-10T05:45:48.483Z,0
2016-10-10T05:46:48.467Z,0
2016-10-10T05:47:48.777Z,0
2016-10-10T05:48:48.753Z,0
2016-10-10T05:49:48.728Z,0
2016-10-10T05:50:48.098Z,0
2016-10-10T05:51:48.391Z,0
2016-10-10T05:52:48.687Z,0
2016-10-10T05:53:48.353Z,0
2016-10-10T05:54:48.645Z,0
2016-10-10T05:55:48.323Z,0
2016-10-10T05:56:48.619Z,0
2016-10-10T05:57:48.607Z,0
2016-10-10T05:58:48.267Z,0
2016-10-10T05:59:48.564Z,0
2016-10-10T06:00:48.566Z,0
2016-10-10T06:01:48.545Z,0
2016-10-10T06:02:48.214Z,0
2016-10-10T06:03:48.509Z,0
2016-10-10T06:04:48.493Z,0
2016-10-10T06:05:48.476Z,0
2016-10-10T06:06:48.455Z,0
2016-10-10T06:07:47.815Z,0
2016-10-10T06:08:48.431Z,0
2016-10-10T06:09:48.405Z,0
2016-10-10T06:10:48.392Z,0
2016-10-10T06:11:47.744Z,0
2016-10-10T06:12:48.359Z,0
2016-10-10T06:13:48.344Z,0
2016-10-10T06:14:48.329Z,0
2016-10-10T06:15:48.308Z,0
2016-10-10T06:16:48.287Z,0
2016-10-10T06:17:47.642Z,0
2016-10-10T06:18:48.282Z,0
2016-10-10T06:19:48.245Z,0
2016-10-10T06:20:48.228Z,0
2016-10-10T06:21:48.209Z,0
2016-10-10T06:22:47.875Z,0
2016-10-10T06:23:48.178Z,0
2016-10-10T06:24:48.185Z,0
2016-10-10T06:25:47.836Z,0
2016-10-10T06:26:48.123Z,0
2016-10-10T06:27:48.113Z,0
2016-10-10T06:28:48.086Z,0
2016-10-10T06:29:47.760Z,0
2016-10-10T06:30:47.759Z,0
2016-10-10T06:31:48.046Z,0
2016-10-10T06:32:48.029Z,0
2016-10-10T06:33:48.062Z,0
2016-10-10T06:34:48.016Z,0
2016-10-10T06:35:47.347Z,0
2016-10-10T06:36:47.654Z,0
2016-10-10T06:37:47.941Z,0
2016-10-10T06:38:47.623Z,0
2016-10-10T06:39:47.906Z,0
2016-10-10T06:40:47.899Z,0
2016-10-10T06:41:47.882Z,0
2016-10-10T06:42:47.861Z,0
2016-10-10T06:43:47.851Z,0
2016-10-10T06:44:47.832Z,0
2016-10-10T06:45:47.503Z,0
2016-10-10T06:46:47.798Z,0
2016-10-10T06:47:47.459Z,0
2016-10-10T06:48:47.762Z,0
2016-10-10T06:49:47.744Z,0
2016-10-10T06:50:47.730Z,4
2016-10-10T06:51:47.715Z,4
2016-10-10T06:52:47.705Z,4
2016-10-10T06:53:47.681Z,0
2016-10-10T06:54:47.670Z,0
2016-10-10T06:55:47.340Z,4
2016-10-10T06:56:47.637Z,4
2016-10-10T06:57:47.615Z,4
2016-10-10T06:58:47.595Z,8
2016-10-10T06:59:47.580Z,4
2016-10-10T07:00:47.575Z,4
2016-10-10T07:01:47.555Z,8
2016-10-10T07:02:47.220Z,8
2016-10-10T07:03:46.885Z,8
2016-10-10T07:04:47.191Z,8
2016-10-10T07:05:47.173Z,8
2016-10-10T07:06:47.476Z,8
2016-10-10T07:07:47.451Z,8
2016-10-10T07:08:47.435Z,12
2016-10-10T07:09:47.418Z,12
2016-10-10T07:10:47.405Z,12
2016-10-10T07:11:47.382Z,12
2016-10-10T07:12:47.383Z,12
2016-10-10T07:13:47.359Z,12
2016-10-10T07:14:47.344Z,12
2016-10-10T07:15:47.338Z,12
2016-10-10T07:16:47.317Z,12
2016-10-10T07:17:47.288Z,12
2016-10-10T07:18:47.267Z,12
2016-10-10T07:19:46.946Z,12
2016-10-10T07:20:46.929Z,12
2016-10-10T07:21:47.222Z,12
2016-10-10T07:22:46.906Z,12
2016-10-10T07:23:46.876Z,12
2016-10-10T07:24:46.855Z,12
2016-10-10T07:25:46.847Z,12
2016-10-10T07:26:46.821Z,12
2016-10-10T07:27:47.136Z,12
2016-10-10T07:28:46.478Z,12
2016-10-10T07:29:46.788Z,12
2016-10-10T07:30:47.078Z,12
2016-10-10T07:31:46.747Z,12
2016-10-10T07:32:47.054Z,12
2016-10-10T07:33:47.054Z,12
2016-10-10T07:34:47.015Z,12
2016-10-10T07:35:46.986Z,12
2016-10-10T07:36:46.987Z,12
2016-10-10T07:37:46.953Z,12
2016-10-10T07:38:46.941Z,12
2016-10-10T07:39:46.935Z,16
2016-10-10T07:40:46.923Z,16
2016-10-10T07:41:46.914Z,16
2016-10-10T07:42:46.875Z,12
2016-10-10T07:43:46.866Z,12
2016-10-10T07:44:46.541Z,12
2016-10-10T07:45:46.840Z,12
2016-10-10T07:46:46.818Z,12
2016-10-10T07:47:46.177Z,12
2016-10-10T07:48:46.476Z,12
2016-10-10T07:49:46.773Z,12
2016-10-10T07:50:46.455Z,12
2016-10-10T07:51:46.426Z,12
2016-10-10T07:52:46.088Z,16
2016-10-10T07:53:46.384Z,16
2016-10-10T07:54:46.375Z,16
2016-10-10T07:55:46.362Z,16
2016-10-10T07:56:46.025Z,16
2016-10-10T07:57:46.644Z,16
2016-10-10T07:58:46.630Z,20
2016-10-10T07:59:46.301Z,16
2016-10-10T08:00:46.625Z,16
2016-10-10T08:01:46.580Z,16
2016-10-10T08:02:46.561Z,16
2016-10-10T08:03:46.547Z,20
2016-10-10T08:04:46.526Z,20
2016-10-10T08:05:46.517Z,16
2016-10-10T08:06:46.492Z,16
2016-10-10T08:07:46.153Z,12
2016-10-10T08:08:46.151Z,16
2016-10-10T08:09:46.126Z,16
2016-10-10T08:10:46.443Z,16
2016-10-10T08:11:46.409Z,16
2016-10-10T08:12:46.398Z,16
2016-10-10T08:13:46.063Z,16
2016-10-10T08:14:46.359Z,16
2016-10-10T08:15:46.353Z,16
2016-10-10T08:16:46.334Z,16
2016-10-10T08:17:45.689Z,16
2016-10-10T08:18:46.316Z,16
2016-10-10T08:19:46.302Z,16
2016-10-10T08:20:46.276Z,16
2016-10-10T08:21:45.987Z,16
2016-10-10T08:22:46.241Z,16
2016-10-10T08:23:45.925Z,16
2016-10-10T08:24:46.240Z,16
2016-10-10T08:25:45.881Z,16
2016-10-10T08:26:46.171Z,16
2016-10-10T08:27:46.144Z,16
2016-10-10T08:28:45.813Z,16
2016-10-10T08:29:45.808Z,16
2016-10-10T08:30:45.782Z,8
2016-10-10T08:31:46.089Z,8
2016-10-10T08:32:46.060Z,4
2016-10-10T08:33:46.043Z,4
2016-10-10T08:34:46.030Z,8
2016-10-10T08:35:46.031Z,4
2016-10-10T08:36:45.997Z,4
2016-10-10T08:37:45.982Z,4
2016-10-10T08:38:45.968Z,4
2016-10-10T08:39:45.976Z,4
2016-10-10T08:40:45.942Z,4
2016-10-10T08:41:45.927Z,4
2016-10-10T08:42:45.594Z,4
2016-10-10T08:43:45.886Z,4
2016-10-10T08:44:45.558Z,8
2016-10-10T08:45:45.848Z,8
2016-10-10T08:46:45.845Z,4
2016-10-10T08:47:45.822Z,4
2016-10-10T08:48:45.806Z,8
2016-10-10T08:49:45.791Z,8
2016-10-10T08:50:45.150Z,8
2016-10-10T08:51:45.445Z,8
2016-10-10T08:52:45.431Z,8
2016-10-10T08:53:45.733Z,8
2016-10-10T08:54:45.717Z,8
2016-10-10T08:55:45.690Z,8
2016-10-10T08:56:45.683Z,8
2016-10-10T08:57:45.339Z,4
2016-10-10T08:58:45.324Z,8
2016-10-10T08:59:45.619Z,8
2016-10-10T09:00:45.304Z,8
2016-10-10T09:01:45.596Z,4
2016-10-10T09:02:45.268Z,8
2016-10-10T09:03:45.558Z,8
2016-10-10T09:04:45.567Z,8
2016-10-10T09:05:45.224Z,8
2016-10-10T09:06:45.511Z,8
2016-10-10T09:07:45.501Z,12
2016-10-10T09:08:45.495Z,8
2016-10-10T09:09:45.469Z,8
2016-10-10T09:10:45.134Z,8
2016-10-10T09:11:45.455Z,8
2016-10-10T09:12:44.802Z,8
2016-10-10T09:13:45.409Z,8
2016-10-10T09:14:45.389Z,8
2016-10-10T09:15:45.366Z,4
2016-10-10T09:16:45.029Z,8
2016-10-10T09:17:45.024Z,4
2016-10-10T09:18:45.008Z,8
2016-10-10T09:19:45.310Z,8
2016-10-10T09:20:45.292Z,8
2016-10-10T09:21:45.277Z,4
2016-10-10T09:22:44.645Z,4
2016-10-10T09:23:45.242Z,4
2016-10-10T09:24:45.230Z,4
2016-10-10T09:25:44.894Z,8
2016-10-10T09:26:44.882Z,8
2016-10-10T09:27:45.178Z,4
2016-10-10T09:28:44.855Z,8
2016-10-10T09:29:44.832Z,8
2016-10-10T09:30:45.134Z,8
2016-10-10T09:31:45.113Z,8
2016-10-10T09:32:44.776Z,8
2016-10-10T09:33:45.084Z,8
2016-10-10T09:34:44.755Z,4
2016-10-10T09:35:45.052Z,4
2016-10-10T09:36:44.723Z,4
2016-10-10T09:37:45.030Z,8
2016-10-10T09:38:45.000Z,8
2016-10-10T09:39:44.667Z,8
2016-10-10T09:40:44.979Z,8
2016-10-10T09:41:44.631Z,8
2016-10-10T09:42:44.616Z,8
2016-10-10T09:43:44.283Z,8
2016-10-10T09:44:44.909Z,8
2016-10-10T09:45:44.570Z,4
2016-10-10T09:46:44.869Z,8
2016-10-10T09:47:44.853Z,8
2016-10-10T09:48:44.851Z,8
2016-10-10T09:49:44.526Z,8
2016-10-10T09:50:44.794Z,8
2016-10-10T09:51:44.467Z,8
2016-10-10T09:52:44.782Z,4
2016-10-10T09:53:44.758Z,8
2016-10-10T09:54:44.425Z,8
2016-10-10T09:55:44.724Z,4
2016-10-10T09:56:44.715Z,4
2016-10-10T09:57:44.695Z,4
2016-10-10T09:58:44.368Z,8
2016-10-10T09:59:44.364Z,4
2016-10-10T10:00:44.653Z,4
2016-10-10T10:01:44.305Z,4
2016-10-10T10:02:44.636Z,4
2016-10-10T10:03:44.589Z,8
2016-10-10T10:04:44.274Z,4
2016-10-10T10:05:44.563Z,4
2016-10-10T10:06:44.557Z,4
2016-10-10T10:07:44.540Z,4
2016-10-10T10:08:44.217Z,4
2016-10-10T10:09:44.199Z,8
2016-10-10T10:10:44.490Z,8
2016-10-10T10:11:44.146Z,8
2016-10-10T10:12:44.154Z,8
2016-10-10T10:13:44.116Z,8
2016-10-10T10:14:44.101Z,8
2016-10-10T10:15:44.406Z,8
2016-10-10T10:16:44.382Z,4
2016-10-10T10:17:44.364Z,8
2016-10-10T10:18:44.352Z,8
2016-10-10T10:19:44.329Z,8
2016-10-10T10:20:44.002Z,8
2016-10-10T10:21:44.298Z,8
2016-10-10T10:22:44.279Z,8
2016-10-10T10:23:44.272Z,8
2016-10-10T10:24:44.263Z,8
2016-10-10T10:25:43.923Z,8
2016-10-10T10:26:44.222Z,8
2016-10-10T10:27:44.201Z,8
2016-10-10T10:28:44.184Z,12
2016-10-10T10:29:44.183Z,8
2016-10-10T10:30:44.147Z,8
2016-10-10T10:31:44.152Z,8
2016-10-10T10:32:44.147Z,8
2016-10-10T10:33:44.101Z,8
2016-10-10T10:34:44.105Z,12
2016-10-10T10:35:44.085Z,8
2016-10-10T10:36:44.062Z,12
2016-10-10T10:37:43.726Z,12
2016-10-10T10:38:43.715Z,12
2016-10-10T10:39:44.028Z,12
2016-10-10T10:40:43.995Z,8
2016-10-10T10:41:43.971Z,12
2016-10-10T10:42:43.958Z,8
2016-10-10T10:43:43.949Z,12
2016-10-10T10:44:43.927Z,8
2016-10-10T10:45:43.604Z,12
2016-10-10T10:46:43.905Z,12
2016-10-10T10:47:43.880Z,8
2016-10-10T10:48:43.859Z,12
2016-10-10T10:49:43.849Z,12
2016-10-10T10:50:43.841Z,16
2016-10-10T10:51:43.808Z,12
2016-10-10T10:52:43.795Z,16
2016-10-10T10:53:43.480Z,12
2016-10-10T10:54:43.771Z,12
2016-10-10T10:55:43.763Z,12
2016-10-10T10:56:43.750Z,12
2016-10-10T10:57:43.733Z,8
2016-10-10T10:58:43.697Z,8
2016-10-10T10:59:43.363Z,8
2016-10-10T11:00:43.671Z,8
2016-10-10T11:01:43.656Z,8
2016-10-10T11:02:43.633Z,8
2016-10-10T11:03:43.304Z,12
2016-10-10T11:04:43.610Z,12
2016-10-10T11:05:43.587Z,12
2016-10-10T11:06:43.571Z,12
2016-10-10T11:07:43.250Z,12
2016-10-10T11:08:43.544Z,12
2016-10-10T11:09:43.522Z,12
2016-10-10T11:10:43.513Z,12
2016-10-10T11:11:43.488Z,12
2016-10-10T11:12:43.481Z,8
2016-10-10T11:13:43.459Z,8
2016-10-10T11:14:43.441Z,12
2016-10-10T11:15:43.425Z,12
2016-10-10T11:16:43.411Z,12
2016-10-10T11:17:43.394Z,12
2016-10-10T11:18:43.387Z,12
2016-10-10T11:19:43.377Z,8
2016-10-10T11:20:43.340Z,8
2016-10-10T11:21:43.333Z,8
2016-10-10T11:22:42.996Z,8
2016-10-10T11:23:43.301Z,8
2016-10-10T11:24:42.957Z,8
2016-10-10T11:25:43.260Z,8
2016-10-10T11:26:42.923Z,8
2016-10-10T11:27:43.221Z,12
2016-10-10T11:28:43.216Z,8
2016-10-10T11:29:43.186Z,8
2016-10-10T11:30:43.178Z,8
2016-10-10T11:31:42.849Z,12
2016-10-10T11:32:43.152Z,12
2016-10-10T11:33:43.131Z,12
2016-10-10T11:34:43.111Z,12
2016-10-10T11:35:43.090Z,12
2016-10-10T11:36:43.074Z,12
2016-10-10T11:37:43.056Z,12
2016-10-10T11:38:43.048Z,16
2016-10-10T11:39:43.036Z,16
2016-10-10T11:40:43.012Z,12
2016-10-10T11:41:43.004Z,12
2016-10-10T11:42:42.986Z,12
2016-10-10T11:43:42.974Z,12
2016-10-10T11:44:42.625Z,12
2016-10-10T11:45:42.620Z,12
2016-10-10T11:46:42.909Z,16
2016-10-10T11:47:42.582Z,12
2016-10-10T11:48:42.889Z,12
2016-10-10T11:49:42.865Z,16
2016-10-10T11:50:42.550Z,16
2016-10-10T11:51:42.857Z,12
2016-10-10T11:52:42.830Z,16
2016-10-10T11:53:42.481Z,16
2016-10-10T11:54:42.778Z,12
2016-10-10T11:55:42.777Z,16
2016-10-10T11:56:42.747Z,16
2016-10-10T11:57:42.743Z,16
2016-10-10T11:58:42.715Z,16
2016-10-10T11:59:42.716Z,16
2016-10-10T12:00:42.687Z,12
2016-10-10T12:01:42.670Z,12
2016-10-10T12:02:42.654Z,8
2016-10-10T12:03:42.649Z,8
2016-10-10T12:04:42.619Z,8
2016-10-10T12:05:42.615Z,8
2016-10-10T12:06:42.290Z,8
2016-10-10T12:07:42.574Z,8
2016-10-10T12:08:42.558Z,12
2016-10-10T12:09:42.562Z,12
2016-10-10T12:10:42.529Z,8
2016-10-10T12:11:42.508Z,12
2016-10-10T12:12:42.519Z,12
2016-10-10T12:13:42.166Z,8
2016-10-10T12:14:42.465Z,12
2016-10-10T12:15:42.449Z,8
2016-10-10T12:16:42.430Z,12
2016-10-10T12:17:42.417Z,12
2016-10-10T12:18:42.390Z,16
2016-10-10T12:19:42.385Z,16
2016-10-10T12:20:42.369Z,20
2016-10-10T12:21:42.353Z,16
2016-10-10T12:22:42.051Z,16
2016-10-10T12:23:42.316Z,16
2016-10-10T12:24:42.305Z,16
2016-10-10T12:25:42.295Z,16
2016-10-10T12:26:42.260Z,20
2016-10-10T12:27:42.259Z,24
2016-10-10T12:28:42.238Z,24
2016-10-10T12:29:42.227Z,24
2016-10-10T12:30:42.203Z,28
2016-10-10T12:31:42.207Z,28
2016-10-10T12:32:42.173Z,28
2016-10-10T12:33:42.156Z,32
2016-10-10T12:34:41.503Z,28
2016-10-10T12:35:42.142Z,28
2016-10-10T12:36:42.117Z,28
2016-10-10T12:37:42.106Z,24
2016-10-10T12:38:42.076Z,24
2016-10-10T12:39:42.076Z,20
2016-10-10T12:40:42.048Z,16
2016-10-10T12:41:42.025Z,16
2016-10-10T12:42:42.012Z,16
2016-10-10T12:43:42.012Z,12
2016-10-10T12:44:41.985Z,16
2016-10-10T12:45:41.964Z,16
2016-10-10T12:46:41.947Z,12
2016-10-10T12:47:41.620Z,12
2016-10-10T12:48:41.611Z,8
2016-10-10T12:49:41.904Z,8
2016-10-10T12:50:41.880Z,8
2016-10-10T12:51:41.877Z,8
2016-10-10T12:52:41.222Z,8
2016-10-10T12:53:41.832Z,8
2016-10-10T12:54:41.505Z,4
2016-10-10T12:55:41.490Z,4
2016-10-10T12:56:41.785Z,8
2016-10-10T12:57:41.778Z,8
2016-10-10T12:58:41.765Z,8
2016-10-10T12:59:41.424Z,4
2016-10-10T13:00:41.725Z,4
2016-10-10T13:01:41.385Z,4
2016-10-10T13:02:41.382Z,4
2016-10-10T13:03:41.671Z,4
2016-10-10T13:04:41.035Z,4
2016-10-10T13:05:41.646Z,4
2016-10-10T13:06:41.629Z,4
2016-10-10T13:07:41.612Z,8
2016-10-10T13:08:41.284Z,4
2016-10-10T13:09:41.826Z,8
2016-10-10T13:10:41.569Z,8
2016-10-10T13:11:41.554Z,12
2016-10-10T13:12:41.537Z,44
2016-10-10T13:13:41.517Z,52
2016-10-10T13:14:41.524Z,40
2016-10-10T13:15:41.497Z,40
2016-10-10T13:16:41.158Z,72
2016-10-10T13:17:41.464Z,56
2016-10-10T13:18:41.120Z,108
2016-10-10T13:19:41.100Z,252
2016-10-10T13:20:41.097Z,80
2016-10-10T13:21:41.072Z,68
2016-10-10T13:22:41.365Z,148
2016-10-10T13:23:41.350Z,96
2016-10-10T13:24:41.337Z,228
2016-10-10T13:25:41.337Z,364
2016-10-10T13:26:41.306Z,356
2016-10-10T13:27:41.289Z,292
2016-10-10T13:28:40.978Z,352
2016-10-10T13:29:41.260Z,336
2016-10-10T13:30:41.498Z,292
2016-10-10T13:31:41.224Z,212
2016-10-10T13:32:41.214Z,28
2016-10-10T13:33:41.209Z,20
2016-10-10T13:34:41.238Z,20
2016-10-10T13:35:41.167Z,20
2016-10-10T13:36:41.165Z,16
2016-10-10T13:37:41.132Z,16
2016-10-10T13:38:41.114Z,20
2016-10-10T13:39:41.094Z,32
2016-10-10T13:40:41.089Z,36
2016-10-10T13:41:41.064Z,20
2016-10-10T13:42:41.055Z,16
2016-10-10T13:43:40.720Z,16
2016-10-10T13:44:41.024Z,12
2016-10-10T13:45:41.007Z,16
2016-10-10T13:46:40.668Z,12
2016-10-10T13:47:40.985Z,12
2016-10-10T13:48:40.955Z,16
2016-10-10T13:49:40.949Z,20
2016-10-10T13:50:40.925Z,20
2016-10-10T13:51:40.906Z,24
2016-10-10T13:52:40.891Z,60
2016-10-10T13:53:40.565Z,96
2016-10-10T13:54:40.865Z,56
2016-10-10T13:55:40.851Z,68
2016-10-10T13:56:40.515Z,96
2016-10-10T13:57:40.809Z,92
2016-10-10T13:58:40.480Z,92
2016-10-10T13:59:40.469Z,88
2016-10-10T14:00:40.453Z,80
2016-10-10T14:01:40.120Z,80
2016-10-10T14:02:40.739Z,80
2016-10-10T14:03:40.720Z,68
2016-10-10T14:04:40.076Z,52
2016-10-10T14:05:40.375Z,48
2016-10-10T14:06:40.364Z,56
2016-10-10T14:07:40.661Z,60
2016-10-10T14:08:40.322Z,64
2016-10-10T14:09:40.454Z,52
2016-10-10T14:10:40.605Z,64
2016-10-10T14:11:40.276Z,60
2016-10-10T14:12:40.596Z,56
2016-10-10T14:13:40.576Z,56
2016-10-10T14:14:40.547Z,56
2016-10-10T14:15:40.537Z,60
2016-10-10T14:16:40.522Z,60
2016-10-10T14:17:40.498Z,16
2016-10-10T14:18:40.165Z,20
2016-10-10T14:19:40.466Z,20
2016-10-10T14:20:40.451Z,20
2016-10-10T14:21:40.121Z,20
2016-10-10T14:22:40.426Z,16
2016-10-10T14:23:40.089Z,20
2016-10-10T14:24:40.074Z,16
2016-10-10T14:25:40.073Z,16
2016-10-10T14:26:40.039Z,20
2016-10-10T14:27:40.348Z,16
2016-10-10T14:28:40.017Z,16
2016-10-10T14:29:39.995Z,16
2016-10-10T14:30:40.293Z,16
2016-10-10T14:31:40.276Z,4
2016-10-10T14:32:39.938Z,4
2016-10-10T14:33:39.957Z,4
2016-10-10T14:34:39.921Z,4
2016-10-10T14:35:40.212Z,4
2016-10-10T14:36:39.895Z,4
2016-10-10T14:37:40.180Z,4